createdAt,value
2022-10-28T02:45:45.422Z,2.30
2022-10-28T02:46:45.627Z,3.20
2022-10-28T02:50:38.941Z,3.10
2022-10-28T02:51:40.330Z,3.20
2022-10-28T02:52:40.235Z,3.10
2022-10-28T02:53:40.209Z,3.20
2022-10-28T02:54:41.090Z,3.00
2022-10-28T02:55:40.065Z,3.20
2022-10-28T02:56:40.013Z,3.00
2022-10-28T02:57:40.064Z,3.10
2022-10-28T02:58:40.044Z,3.20
2022-10-28T02:59:39.920Z,2.80
2022-10-28T03:00:39.955Z,3.10
2022-10-28T03:01:40.262Z,2.80
2022-10-28T03:02:39.924Z,3.10
2022-10-28T03:03:39.964Z,3.20
2022-10-28T03:04:39.957Z,3.50
2022-10-28T03:05:39.878Z,3.30
2022-10-28T03:06:39.959Z,3.70
2022-10-28T03:07:39.857Z,2.90
2022-10-28T03:08:39.876Z,2.90
2022-10-28T03:09:39.893Z,3.10
2022-10-28T03:10:39.858Z,3.00
2022-10-28T03:11:39.839Z,2.80
2022-10-28T03:12:39.956Z,2.40
2022-10-28T03:13:39.798Z,3.00
2022-10-28T03:14:39.885Z,3.00
2022-10-28T03:15:39.822Z,3.00
2022-10-28T03:16:39.758Z,3.40
2022-10-28T03:17:39.848Z,2.90
2022-10-28T03:18:39.795Z,3.00
2022-10-28T03:19:39.787Z,2.80
2022-10-28T03:20:39.728Z,2.90
2022-10-28T03:21:39.745Z,3.10
2022-10-28T03:22:39.681Z,3.10
2022-10-28T03:25:12.979Z,2.50
2022-10-28T03:26:13.326Z,3.00
2022-10-28T03:27:13.396Z,3.20
2022-10-28T03:28:12.898Z,2.20
2022-10-28T03:29:13.042Z,2.80
2022-10-28T03:30:12.928Z,3.00
2022-10-28T03:31:13.144Z,2.60
2022-10-28T03:32:14.759Z,2.50
2022-10-28T03:33:14.571Z,2.50
2022-10-28T03:34:14.369Z,2.80
2022-10-28T03:35:13.961Z,2.60
2022-10-28T03:36:14.125Z,2.90
2022-10-28T03:37:14.142Z,2.70
2022-10-28T03:38:14.176Z,2.60
2022-10-28T03:39:14.397Z,2.90
2022-10-28T03:40:13.995Z,2.60
2022-10-28T03:41:14.388Z,2.60
2022-10-28T03:42:14.428Z,2.90
2022-10-28T03:43:14.042Z,3.00
2022-10-28T03:44:14.394Z,3.00
2022-10-28T03:45:14.119Z,2.80
2022-10-28T03:46:13.999Z,2.70
2022-10-28T03:47:14.014Z,2.70
2022-10-28T03:48:14.493Z,2.70
2022-10-28T03:49:14.053Z,2.80
2022-10-28T03:50:14.018Z,3.00
2022-10-28T03:51:14.140Z,2.90
2022-10-28T03:52:14.009Z,2.50
2022-10-28T03:53:13.806Z,2.80
2022-10-28T03:54:14.004Z,2.50
2022-10-28T03:55:13.811Z,2.60
2022-10-28T03:56:13.859Z,2.50
2022-10-28T03:57:13.835Z,2.50
2022-10-28T03:58:13.801Z,3.00
2022-10-28T03:59:16.334Z,3.00
2022-10-28T04:00:13.891Z,2.60
2022-10-28T04:01:14.983Z,3.00
2022-10-28T04:02:13.941Z,3.20
2022-10-28T04:03:13.835Z,3.20
2022-10-28T04:04:13.968Z,2.80
2022-10-28T04:05:13.837Z,3.00
2022-10-28T04:06:13.981Z,2.70
2022-10-28T04:07:14.346Z,2.90
2022-10-28T04:08:13.755Z,3.10
2022-10-28T04:09:13.971Z,2.80
2022-10-28T04:10:13.906Z,2.80
2022-10-28T04:11:13.921Z,3.00
2022-10-28T04:12:13.913Z,2.80
2022-10-28T04:13:13.968Z,2.50
2022-10-28T04:14:13.838Z,3.20
2022-10-28T04:15:14.058Z,3.60
2022-10-28T04:16:13.713Z,3.20
2022-10-28T04:17:13.836Z,3.10
2022-10-28T04:18:13.845Z,3.00
2022-10-28T04:19:13.608Z,2.80
2022-10-28T04:20:13.586Z,3.10
2022-10-28T04:21:13.587Z,2.60
2022-10-28T04:22:13.832Z,2.90
2022-10-28T04:23:13.753Z,2.50
2022-10-28T04:24:13.895Z,2.90
2022-10-28T04:25:16.683Z,2.80
2022-10-28T04:26:13.688Z,2.60
2022-10-28T04:27:13.641Z,2.60
2022-10-28T04:28:13.769Z,2.90
2022-10-28T04:29:13.550Z,3.10
2022-10-28T04:30:13.567Z,3.20
2022-10-28T04:31:13.507Z,3.30
2022-10-28T04:32:13.560Z,3.30
2022-10-28T04:33:13.524Z,3.20
2022-10-28T04:34:13.503Z,3.20
2022-10-28T04:35:13.485Z,2.90
2022-10-28T04:36:13.454Z,3.40
2022-10-28T04:37:15.906Z,2.90
2022-10-28T04:38:13.436Z,3.00
2022-10-28T04:39:13.420Z,3.20
2022-10-28T04:40:13.516Z,2.80
2022-10-28T04:41:13.618Z,2.80
2022-10-28T04:42:13.742Z,3.00
2022-10-28T04:43:13.410Z,2.80
2022-10-28T04:44:13.518Z,2.70
2022-10-28T04:45:13.455Z,3.20
2022-10-28T04:46:13.549Z,3.20
2022-10-28T04:47:13.462Z,2.90
2022-10-28T04:48:13.472Z,3.00
2022-10-28T04:49:13.424Z,2.40
2022-10-28T04:50:13.371Z,3.00
2022-10-28T04:51:13.384Z,2.90
2022-10-28T04:52:15.698Z,2.80
2022-10-28T04:53:14.467Z,2.70
2022-10-28T04:54:13.329Z,2.70
2022-10-28T04:55:13.262Z,3.00
2022-10-28T04:56:13.507Z,3.00
2022-10-28T04:57:14.098Z,3.30
2022-10-28T04:58:13.515Z,3.60
2022-10-28T04:59:13.443Z,3.10
2022-10-28T05:00:13.195Z,2.60
2022-10-28T05:01:13.398Z,2.90
2022-10-28T05:02:13.912Z,2.70
2022-10-28T05:03:13.397Z,3.10
2022-10-28T05:04:13.219Z,3.20
2022-10-28T05:05:13.193Z,3.20
2022-10-28T05:06:13.314Z,3.20
2022-10-28T05:07:13.392Z,2.70
2022-10-28T05:08:13.104Z,2.90
2022-10-28T05:09:13.780Z,2.70
2022-10-28T05:10:13.436Z,2.90
2022-10-28T05:11:13.122Z,3.00
2022-10-28T05:12:13.061Z,3.00
2022-10-28T05:13:13.060Z,2.80
2022-10-28T05:14:13.036Z,2.80
2022-10-28T05:15:13.094Z,3.20
2022-10-28T05:16:13.027Z,3.40
2022-10-28T05:17:13.048Z,3.10
2022-10-28T05:18:13.057Z,3.20
2022-10-28T05:19:13.023Z,3.50
2022-10-28T05:20:12.958Z,3.40
2022-10-28T05:21:12.889Z,2.90
2022-10-28T05:22:13.017Z,3.50
2022-10-28T05:23:13.042Z,3.70
2022-10-28T05:24:12.855Z,2.90
2022-10-28T05:25:13.059Z,3.30
2022-10-28T05:26:12.910Z,3.00
2022-10-28T05:27:13.051Z,2.60
2022-10-28T05:28:13.060Z,3.60
2022-10-28T05:29:13.531Z,3.60
2022-10-28T05:30:13.135Z,3.40
2022-10-28T05:31:13.114Z,3.20
2022-10-28T05:32:13.728Z,3.00
2022-10-28T05:33:13.147Z,3.40
2022-10-28T05:34:13.711Z,3.70
2022-10-28T05:35:13.105Z,3.60
2022-10-28T05:36:13.074Z,3.40
2022-10-28T05:37:13.553Z,3.30
2022-10-28T05:38:13.114Z,3.90
2022-10-28T05:39:13.342Z,3.50
2022-10-28T05:40:13.175Z,3.20
2022-10-28T05:41:13.324Z,3.70
2022-10-28T05:42:13.206Z,3.10
2022-10-28T05:43:13.237Z,3.10
2022-10-28T05:44:12.898Z,3.30
2022-10-28T05:45:13.465Z,3.10
2022-10-28T05:46:13.950Z,3.70
2022-10-28T05:47:14.518Z,3.50
2022-10-28T05:48:14.658Z,3.40
2022-10-28T05:49:13.259Z,3.20
2022-10-28T05:50:12.934Z,3.20
2022-10-28T05:51:13.921Z,3.50
2022-10-28T05:52:12.805Z,2.80
2022-10-28T05:53:12.777Z,3.30
2022-10-28T05:54:12.842Z,3.60
2022-10-28T05:55:13.682Z,3.30
2022-10-28T05:56:12.765Z,3.50
2022-10-28T05:57:12.746Z,3.50
2022-10-28T05:58:12.919Z,3.20
2022-10-28T05:59:12.774Z,3.00
2022-10-28T06:00:12.743Z,3.50
2022-10-28T06:01:12.831Z,4.10
2022-10-28T06:02:12.805Z,3.20
2022-10-28T06:03:12.669Z,3.20
2022-10-28T06:04:12.578Z,3.40
2022-10-28T06:05:12.509Z,3.60
2022-10-28T06:06:12.553Z,3.90
2022-10-28T06:07:12.806Z,3.80
2022-10-28T06:08:12.580Z,3.60
2022-10-28T06:09:12.558Z,3.50
2022-10-28T06:10:12.498Z,3.80
2022-10-28T06:11:11.183Z,3.60
2022-10-28T06:12:11.056Z,3.40
2022-10-28T06:13:11.252Z,3.20
2022-10-28T06:14:10.934Z,3.40
2022-10-28T06:15:10.948Z,3.10
2022-10-28T06:16:11.009Z,3.20
2022-10-28T06:17:10.993Z,3.00
2022-10-28T06:18:12.487Z,3.30
2022-10-28T06:19:10.832Z,3.00
2022-10-28T06:20:10.946Z,3.40
2022-10-28T06:21:10.859Z,3.40
2022-10-28T06:22:10.935Z,3.40
2022-10-28T06:23:10.858Z,3.00
2022-10-28T06:24:12.094Z,3.20
2022-10-28T06:25:10.766Z,3.10
2022-10-28T06:26:10.741Z,3.20
2022-10-28T06:27:16.261Z,3.10
2022-10-28T06:28:10.715Z,3.10
2022-10-28T06:29:10.769Z,3.40
2022-10-28T06:30:10.685Z,3.10
2022-10-28T06:31:10.735Z,3.10
2022-10-28T06:32:11.111Z,3.30
2022-10-28T06:33:11.680Z,3.00
2022-10-28T06:34:10.726Z,2.80
2022-10-28T06:35:10.646Z,3.20
2022-10-28T06:36:10.710Z,2.60
2022-10-28T06:37:10.598Z,2.80
2022-10-28T06:38:10.627Z,2.60
2022-10-28T06:39:10.797Z,2.40
2022-10-28T06:40:10.625Z,2.30
2022-10-28T06:41:10.836Z,2.10
2022-10-28T06:42:10.607Z,2.80
2022-10-28T06:43:10.680Z,2.20
2022-10-28T06:44:10.629Z,2.30
2022-10-28T06:45:11.567Z,2.20
2022-10-28T06:46:10.611Z,2.40
2022-10-28T06:47:12.113Z,2.50
2022-10-28T06:48:12.077Z,2.50
2022-10-28T06:49:12.154Z,2.60
2022-10-28T06:50:12.131Z,2.60
2022-10-28T06:51:12.182Z,2.50
2022-10-28T06:52:12.152Z,3.00
2022-10-28T06:53:12.120Z,2.30
2022-10-28T06:54:12.186Z,2.70
2022-10-28T06:55:12.097Z,2.20
2022-10-28T06:56:12.600Z,2.90
2022-10-28T06:57:12.020Z,3.00
2022-10-28T06:58:13.651Z,3.50
2022-10-28T06:59:12.002Z,2.80
2022-10-28T07:00:12.946Z,3.50
2022-10-28T07:01:12.019Z,3.30
2022-10-28T07:02:12.136Z,2.70
2022-10-28T07:03:11.934Z,3.10
2022-10-28T07:04:11.912Z,2.90
2022-10-28T07:05:11.902Z,3.00
2022-10-28T07:06:11.925Z,2.90
2022-10-28T07:07:11.969Z,3.40
2022-10-28T07:08:11.907Z,3.10
2022-10-28T07:09:11.918Z,3.40
2022-10-28T07:10:13.474Z,2.90
2022-10-28T07:11:11.871Z,3.00
2022-10-28T07:12:11.892Z,3.10
2022-10-28T07:13:11.808Z,2.90
2022-10-28T07:14:11.807Z,3.70
2022-10-28T07:15:11.816Z,3.10
2022-10-28T07:16:11.803Z,3.20
2022-10-28T07:17:11.869Z,3.30
2022-10-28T07:18:11.802Z,3.40
2022-10-28T07:19:11.790Z,2.80
2022-10-28T07:20:11.747Z,3.40
2022-10-28T07:21:11.817Z,3.60
2022-10-28T07:22:11.782Z,3.30
2022-10-28T07:23:11.790Z,3.20
2022-10-28T07:24:11.723Z,3.10
2022-10-28T07:25:11.760Z,3.10
2022-10-28T07:26:11.801Z,3.20
2022-10-28T07:27:11.750Z,3.00
2022-10-28T07:28:11.742Z,3.20
2022-10-28T07:29:11.730Z,2.60
2022-10-28T07:30:11.686Z,2.80
2022-10-28T07:32:11.742Z,3.00
2022-10-28T07:33:11.647Z,3.00
2022-10-28T07:34:11.675Z,3.00
2022-10-28T07:35:11.686Z,3.20
2022-10-28T07:36:11.663Z,3.00
2022-10-28T07:37:11.637Z,3.20
2022-10-28T07:38:11.609Z,2.90
2022-10-28T07:39:11.714Z,2.90
2022-10-28T07:40:11.586Z,2.80
2022-10-28T07:41:11.546Z,3.00
2022-10-28T07:42:11.608Z,2.80
2022-10-28T07:43:11.544Z,3.20
2022-10-28T07:44:11.593Z,3.30
2022-10-28T07:45:11.601Z,2.70
2022-10-28T07:46:12.143Z,3.20
2022-10-28T07:47:11.555Z,2.80
2022-10-28T07:48:11.656Z,2.50
2022-10-28T07:49:11.470Z,2.60
2022-10-28T07:50:12.596Z,2.70
2022-10-28T07:51:11.465Z,2.40
2022-10-28T07:52:11.450Z,2.00
2022-10-28T07:53:11.456Z,2.10
2022-10-28T07:54:11.436Z,2.20
2022-10-28T07:55:11.442Z,2.40
2022-10-28T07:56:11.431Z,2.40
2022-10-28T07:57:11.381Z,2.60
2022-10-28T07:58:11.452Z,2.40
2022-10-28T07:59:11.392Z,2.40
2022-10-28T08:00:11.347Z,2.00
2022-10-28T08:01:11.495Z,2.20
2022-10-28T08:02:11.494Z,2.30
2022-10-28T08:03:45.198Z,2.40
2022-10-28T08:04:11.647Z,2.40
2022-10-28T08:05:11.542Z,2.40
2022-10-28T08:06:11.269Z,2.20
2022-10-28T08:07:11.298Z,2.50
2022-10-28T08:08:11.285Z,2.20
2022-10-28T08:09:11.339Z,1.90
2022-10-28T08:10:11.267Z,2.60
2022-10-28T08:11:11.294Z,2.30
2022-10-28T08:12:11.214Z,2.30
2022-10-28T08:13:11.289Z,2.00
2022-10-28T08:14:11.206Z,2.60
2022-10-28T08:15:12.190Z,2.30
2022-10-28T08:16:11.348Z,2.30
2022-10-28T08:17:11.338Z,2.60
2022-10-28T08:18:11.231Z,2.70
2022-10-28T08:19:44.728Z,2.20
2022-10-28T08:20:11.517Z,2.60
2022-10-28T08:21:11.432Z,2.10
2022-10-28T08:22:11.326Z,2.10
2022-10-28T08:23:11.160Z,1.80
2022-10-28T08:24:11.138Z,2.20
2022-10-28T08:25:11.133Z,2.40
2022-10-28T08:26:11.060Z,2.30
2022-10-28T08:27:11.140Z,2.60
2022-10-28T08:28:11.308Z,2.10
2022-10-28T08:29:11.094Z,2.20
2022-10-28T08:30:11.062Z,2.30
2022-10-28T08:31:11.072Z,2.30
2022-10-28T08:32:11.003Z,2.10
2022-10-28T08:33:11.041Z,2.10
2022-10-28T08:34:11.063Z,2.00
2022-10-28T08:35:10.995Z,2.40
2022-10-28T08:36:11.256Z,2.90
2022-10-28T08:37:11.043Z,2.20
2022-10-28T08:38:11.028Z,2.10
2022-10-28T08:39:10.982Z,2.30
2022-10-28T08:40:11.100Z,2.40
2022-10-28T08:41:11.104Z,2.40
2022-10-28T08:42:10.957Z,2.40
2022-10-28T08:43:11.049Z,3.10
2022-10-28T08:44:12.009Z,2.40
2022-10-28T08:45:15.356Z,2.80
2022-10-28T08:46:11.871Z,2.30
2022-10-28T08:47:10.942Z,2.50
2022-10-28T08:48:10.892Z,2.30
2022-10-28T08:49:10.926Z,2.20
2022-10-28T08:50:10.852Z,2.40
2022-10-28T08:51:10.836Z,2.70
2022-10-28T08:52:10.815Z,2.20
2022-10-28T08:53:10.867Z,2.30
2022-10-28T08:54:10.856Z,2.00
2022-10-28T08:55:10.814Z,2.00
2022-10-28T08:56:10.813Z,2.30
2022-10-28T08:57:14.523Z,1.90
2022-10-28T08:58:11.792Z,1.70
2022-10-28T08:59:10.750Z,1.60
2022-10-28T09:00:10.806Z,1.90
2022-10-28T09:01:10.840Z,2.10
2022-10-28T09:02:10.742Z,2.10
2022-10-28T09:03:10.790Z,1.90
2022-10-28T09:04:10.790Z,1.60
2022-10-28T09:05:10.700Z,1.70
2022-10-28T09:06:10.707Z,1.90
2022-10-28T09:07:10.679Z,1.80
2022-10-28T09:08:10.686Z,2.20
2022-10-28T09:09:10.656Z,2.10
2022-10-28T09:10:10.681Z,2.40
2022-10-28T09:11:10.631Z,2.00
2022-10-28T09:12:10.639Z,1.90
2022-10-28T09:13:10.640Z,2.10
2022-10-28T09:14:10.606Z,1.70
2022-10-28T09:15:10.595Z,1.70
2022-10-28T09:16:13.633Z,1.60
2022-10-28T09:17:11.650Z,1.90
2022-10-28T09:18:10.669Z,2.00
2022-10-28T09:19:10.629Z,1.80
2022-10-28T09:20:10.539Z,1.90
2022-10-28T09:21:10.527Z,1.80
2022-10-28T09:22:10.580Z,1.80
2022-10-28T09:23:10.629Z,2.10
2022-10-28T09:24:10.581Z,1.50
2022-10-28T09:25:10.463Z,2.10
2022-10-28T09:26:10.590Z,1.70
2022-10-28T09:27:10.498Z,1.80
2022-10-28T09:28:10.593Z,1.90
2022-10-28T09:29:10.500Z,2.00
2022-10-28T09:30:10.735Z,1.60
2022-10-28T09:31:10.424Z,1.70
2022-10-28T09:32:10.447Z,1.80
2022-10-28T09:33:10.492Z,1.90
2022-10-28T09:34:10.840Z,1.90
2022-10-28T09:35:10.632Z,1.60
2022-10-28T09:36:10.508Z,1.80
2022-10-28T09:37:10.398Z,1.90
2022-10-28T09:38:10.453Z,2.10
2022-10-28T09:39:11.025Z,1.70
2022-10-28T09:40:10.409Z,2.00
2022-10-28T09:41:10.590Z,1.90
2022-10-28T09:42:10.345Z,2.00
2022-10-28T09:43:10.363Z,1.50
2022-10-28T09:44:10.368Z,1.60
2022-10-28T10:02:40.858Z,1.60
2022-10-28T10:03:41.990Z,1.50
2022-10-28T10:04:42.052Z,1.80
2022-10-28T10:05:41.940Z,1.50
2022-10-28T10:06:41.985Z,1.60
2022-10-28T10:07:41.914Z,1.70
2022-10-28T10:08:41.976Z,1.50
2022-10-28T10:09:41.888Z,1.40
2022-10-28T10:10:41.902Z,1.80
2022-10-28T10:11:42.588Z,1.60
2022-10-28T10:12:41.918Z,1.40
2022-10-28T10:13:41.837Z,1.20
2022-10-28T10:14:41.899Z,1.60
2022-10-28T10:15:41.892Z,1.60
2022-10-28T10:16:42.075Z,1.50
2022-10-28T10:17:41.995Z,1.30
2022-10-28T10:18:41.873Z,1.70
2022-10-28T10:19:42.008Z,1.50
2022-10-28T10:20:41.862Z,1.50
2022-10-28T10:21:41.814Z,1.30
2022-10-28T10:22:41.829Z,1.40
2022-10-28T10:23:41.849Z,1.60
2022-10-28T10:24:41.821Z,1.70
2022-10-28T10:25:41.749Z,1.30
2022-10-28T10:26:42.020Z,1.40
2022-10-28T10:27:41.854Z,1.70
2022-10-28T10:28:41.689Z,1.70
2022-10-28T10:29:41.736Z,1.80
2022-10-28T10:30:41.716Z,1.50
2022-10-28T10:31:41.813Z,1.70
2022-10-28T10:32:41.706Z,1.60
2022-10-28T10:33:41.865Z,1.40
2022-10-28T10:34:41.662Z,1.40
2022-10-28T10:35:41.667Z,1.50
2022-10-28T10:36:41.692Z,1.70
2022-10-28T10:37:41.701Z,1.60
2022-10-28T10:38:41.672Z,1.60
2022-10-28T10:39:42.198Z,1.20
2022-10-28T10:40:41.590Z,1.30
2022-10-28T10:41:41.626Z,1.50
2022-10-28T10:42:51.678Z,1.70
2022-10-28T10:43:43.573Z,1.50
2022-10-28T10:44:41.530Z,1.30
2022-10-28T10:45:41.697Z,1.30
2022-10-28T10:46:41.524Z,2.20
2022-10-28T10:47:41.729Z,1.20
2022-10-28T10:48:41.624Z,1.60
2022-10-28T10:49:41.571Z,1.40
2022-10-28T10:50:41.477Z,1.50
2022-10-28T10:51:41.453Z,1.40
2022-10-28T10:52:41.737Z,1.50
2022-10-28T10:53:41.472Z,1.60
2022-10-28T10:54:42.469Z,1.50
2022-10-28T10:55:41.437Z,1.40
2022-10-28T10:56:41.499Z,1.60
2022-10-28T10:57:42.059Z,1.70
2022-10-28T10:58:41.489Z,1.30
2022-10-28T10:59:41.415Z,1.50
2022-10-28T11:00:41.458Z,1.50
2022-10-28T11:01:41.554Z,1.60
2022-10-28T11:02:41.518Z,1.60
2022-10-28T11:03:41.431Z,1.50
2022-10-28T11:04:41.474Z,1.30
2022-10-28T11:05:41.357Z,1.30
2022-10-28T11:06:41.371Z,1.50
2022-10-28T11:07:41.425Z,1.20
2022-10-28T11:08:41.468Z,1.10
2022-10-28T11:09:41.377Z,1.30
2022-10-28T11:10:41.317Z,1.50
2022-10-28T11:11:41.335Z,1.40
2022-10-28T11:12:41.284Z,1.70
2022-10-28T11:13:45.086Z,1.70
2022-10-28T11:14:42.250Z,1.50
2022-10-28T11:15:41.300Z,1.90
2022-10-28T11:16:41.235Z,1.40
2022-10-28T11:17:41.403Z,1.50
2022-10-28T11:18:41.470Z,1.40
2022-10-28T11:19:41.331Z,1.50
2022-10-28T11:20:41.199Z,1.40
2022-10-28T11:21:41.226Z,1.60
2022-10-28T11:22:41.618Z,1.90
2022-10-28T11:23:41.198Z,1.50
2022-10-28T11:24:41.220Z,1.40
2022-10-28T11:25:41.192Z,1.70
2022-10-28T11:26:41.174Z,1.60
2022-10-28T11:27:41.306Z,1.40
2022-10-28T11:28:41.171Z,1.70
2022-10-28T11:29:41.184Z,1.40
2022-10-28T11:30:41.384Z,1.20
2022-10-28T11:31:41.485Z,1.20
2022-10-28T11:32:50.130Z,1.80
2022-10-28T11:33:42.145Z,1.70
2022-10-28T11:34:41.062Z,1.50
2022-10-28T11:35:41.047Z,1.70
2022-10-28T11:36:41.024Z,1.40
2022-10-28T11:37:41.078Z,1.70
2022-10-28T11:38:45.553Z,1.20
2022-10-28T11:39:42.114Z,1.50
2022-10-28T11:40:40.997Z,1.30
2022-10-28T11:41:41.360Z,1.50
2022-10-28T11:42:41.185Z,1.50
2022-10-28T11:43:41.105Z,1.50
2022-10-28T11:44:41.240Z,1.20
2022-10-28T11:45:40.950Z,1.70
2022-10-28T11:46:41.363Z,1.40
2022-10-28T11:47:40.931Z,1.10
2022-10-28T11:48:41.029Z,1.80
2022-10-28T11:49:40.938Z,1.60
2022-10-28T11:50:40.982Z,1.20
2022-10-28T11:51:41.054Z,1.60
2022-10-28T11:52:45.114Z,1.50
2022-10-28T11:53:41.879Z,1.70
2022-10-28T11:54:41.262Z,1.50
2022-10-28T11:55:40.900Z,1.50
2022-10-28T11:56:41.753Z,1.50
2022-10-28T11:57:40.946Z,1.00
2022-10-28T11:58:40.986Z,1.60
2022-10-28T11:59:40.881Z,1.40
2022-10-28T12:00:40.806Z,1.90
2022-10-28T12:01:41.151Z,1.20
2022-10-28T12:02:40.856Z,1.40
2022-10-28T12:03:41.348Z,1.80
2022-10-28T12:04:40.899Z,1.90
2022-10-28T12:05:40.876Z,1.70
2022-10-28T12:06:40.813Z,1.70
2022-10-28T12:07:40.849Z,1.60
2022-10-28T12:08:41.050Z,1.50
2022-10-28T12:09:40.816Z,1.40
2022-10-28T12:10:41.009Z,1.70
2022-10-28T12:11:40.911Z,1.50
2022-10-28T12:12:41.475Z,1.70
2022-10-28T12:13:40.767Z,1.20
2022-10-28T12:14:40.938Z,1.70
2022-10-28T12:15:41.645Z,1.50
2022-10-28T12:16:41.147Z,1.50
2022-10-28T12:17:41.233Z,1.50
2022-10-28T12:18:40.661Z,1.30
2022-10-28T12:19:40.759Z,1.50
2022-10-28T12:20:40.775Z,1.40
2022-10-28T12:21:40.700Z,1.40
2022-10-28T12:22:40.638Z,1.30
2022-10-28T12:23:41.005Z,1.50
2022-10-28T12:24:40.623Z,1.60
2022-10-28T12:25:41.978Z,1.50
2022-10-28T12:26:40.707Z,1.40
2022-10-28T12:27:40.769Z,1.50
2022-10-28T12:28:41.484Z,1.30
2022-10-28T12:29:44.140Z,1.30
2022-10-28T12:30:40.937Z,1.60
2022-10-28T12:31:40.628Z,1.40
2022-10-28T12:32:40.662Z,1.30
2022-10-28T12:33:41.173Z,1.50
2022-10-28T12:34:45.529Z,1.30
2022-10-28T12:35:42.347Z,1.50
2022-10-28T12:36:40.594Z,1.80
2022-10-28T12:37:43.382Z,1.80
2022-10-28T12:38:41.666Z,1.60
2022-10-28T12:39:41.039Z,1.70
2022-10-28T12:40:41.119Z,1.60
